Accueil
METAR-TAF:

METAR-TAF

Aéroports :

Trat, Thaïlande

latitude: 12-16-28N, longitude: 102-19-08E, altitude: 32 m

Observation

Le bulletin a été fait il y a 5 heures et 15 minutes, à 09:00 UTC
Vent 10 kt de sud/sud-ouest
Température 31°C
Humidité 75%
Pression 1006 hPa
Visibilité 10 km ou plus
Quelques nuages à une hauteur de 1800 ft, Cumulonimbus.

METAR: VTBO 090900Z 20010KT 9999 FEW018CB 31/26 Q1006

Heure: 21:15 (14:15 UTC)

Prévision

Le bulletin a été fait il y a 3 heures et 15 minutes, à 11:00 UTC
Prévision valable du 09 à 12 UTC au 10 à 12 UTC
Vent 8 kt de sud/sud-ouest
Visibilité 10 km ou plus
Quelques nuages à une hauteur de 2000 ft
Nuages épars à une hauteur de 10000 ft
Temporairement
du 09 à 12 UTC au 09 à 18 UTC
Vent 5 kt de est/sud-est
Evoluant progressivement
du 09 à 21 UTC au 09 à 23 UTC
Vent kt de nord

TAF: VTBO 091100Z 0912/1012 20008KT 9999 FEW020 SCT100 TEMPO 0912/0918 12005KT BECMG 0921/0923 00000KT

Observations et prévisions météorologiques de plus de 4000 aéroports (messages METAR et TAF).

Les stations disponibles sont représentées par des disques jaunes et rouges sur la carte.

Passer la souris dessus pour voir le nom de la station.

Cliquer dessus pour voir les observations et prévisions météorologiques.

Pour changer de carte: cliquez sur les boutons verts avec une croix noire pour zoomer, sur le bouton vert avec un tiret pour effectuer un zoom arrière, ou sur les flèches vertes pour les cartes adjacentes.


METAR-TAF: